ΕΜΥ, Εθνική Μετεωρολογική Υπηρεσία - Δελτία Καιρού, Προγνώσεις

ΑΕΡΟΝΑΥΤΙΛΙΑ

GREEK AIRPORTS CODES

LGKS 151200Z 29009KT CAVOK 23/16 Q1018 RMK HAND WIND ANEMOMETER OBSERVATION=

EUROPEAN AIRPORTS CODES

LFPO 151200Z 25020KT 9999 BKN038 BKN043 BKN068 14/06 Q1013TEMPO -RA=